Time;durP1;ratioP1;P1;durP2;ratioP2;P2;SDS_P1;SDS_P2;PMS_P1;PMS_P2;Temp;Humidity;BMP_temperature;BMP_pressure;BME280_temperature;BME280_humidity;BME280_pressure;Samples;Min_cycle;Max_cycle;Signal;HPM_P1;HPM_P2
2024/03/15 00:00:13;;;;;;;11.80;3.97;;;;;;;14.25;59.84;98621.38;5094320;28;20114;-47
2024/03/15 00:02:39;;;;;;;15.43;12.90;;;;;;;14.19;59.60;98626.50;5094536;28;20398;-47
2024/03/15 00:05:05;;;;;;;12.50;4.85;;;;;;;14.19;59.77;98631.00;5092951;28;20028;-47
2024/03/15 00:07:30;;;;;;;22.13;19.88;;;;;;;14.27;60.02;98620.09;5092968;28;20077;-47
2024/03/15 00:09:57;;;;;;;11.23;3.70;;;;;;;14.34;58.54;98625.28;5094404;28;20441;-47
2024/03/15 00:12:23;;;;;;;7.15;4.70;;;;;;;14.26;58.52;98610.56;5094367;28;20394;-47
2024/03/15 00:14:49;;;;;;;6.45;3.42;;;;;;;14.16;58.79;98610.31;5094071;28;20028;-47
2024/03/15 00:17:15;;;;;;;11.43;3.38;;;;;;;14.14;58.82;98613.16;5092939;28;20537;-47
2024/03/15 00:19:41;;;;;;;12.80;8.95;;;;;;;14.18;58.42;98601.16;5076051;28;20495;-47
2024/03/15 00:22:07;;;;;;;11.52;8.95;;;;;;;14.09;58.19;98602.50;5092029;28;20161;-47
2024/03/15 00:24:36;;;;;;;6.80;2.45;;;;;;;14.13;57.42;98608.94;5092858;28;20032;-47
2024/03/15 00:27:02;;;;;;;9.63;5.28;;;;;;;14.19;57.24;98607.22;5093806;28;20055;-47
2024/03/15 00:29:28;;;;;;;7.18;4.22;;;;;;;14.26;56.42;98617.69;5092768;28;20051;-47
2024/03/15 00:31:57;;;;;;;7.07;3.65;;;;;;;14.25;55.77;98626.66;5092673;28;20089;-47
2024/03/15 00:34:24;;;;;;;10.85;5.38;;;;;;;14.26;54.68;98615.03;5093584;28;20033;-47
2024/03/15 00:36:49;;;;;;;7.85;4.65;;;;;;;14.16;54.88;98621.66;5092302;28;20020;-47
2024/03/15 00:39:16;;;;;;;5.07;2.58;;;;;;;14.14;55.12;98620.28;5092275;28;20497;-47
2024/03/15 00:41:42;;;;;;;13.25;9.68;;;;;;;14.12;55.20;98625.00;5093461;28;20024;-47
2024/03/15 00:44:08;;;;;;;7.97;4.68;;;;;;;14.13;54.17;98624.78;5093488;28;20027;-47
2024/03/15 00:46:33;;;;;;;10.38;8.02;;;;;;;14.05;54.37;98630.38;5092113;28;20028;-47
2024/03/15 00:48:59;;;;;;;7.60;6.55;;;;;;;14.06;54.83;98634.59;5093373;28;20023;-47
2024/03/15 00:51:25;;;;;;;10.25;6.82;;;;;;;14.10;54.43;98630.47;5093260;28;20012;-47
2024/03/15 00:53:51;;;;;;;15.45;11.15;;;;;;;14.15;54.17;98627.19;5093251;28;20024;-47
2024/03/15 00:56:17;;;;;;;12.02;8.75;;;;;;;14.24;54.67;98628.47;5092175;28;20035;-47
2024/03/15 00:58:43;;;;;;;12.02;6.97;;;;;;;14.36;53.25;98625.84;5091910;28;20494;-47
2024/03/15 01:01:10;;;;;;;10.77;5.90;;;;;;;14.38;53.25;98637.78;5093145;28;20031;-47
2024/03/15 01:03:36;;;;;;;10.98;8.10;;;;;;;14.41;53.81;98630.44;5091795;28;20565;-47
2024/03/15 01:06:02;;;;;;;8.75;5.10;;;;;;;14.41;52.98;98619.88;5091733;28;20051;-47
2024/03/15 01:08:28;;;;;;;3.58;1.60;;;;;;;14.30;52.95;98624.13;5093328;28;20173;-47
2024/03/15 01:10:54;;;;;;;6.28;2.35;;;;;;;14.20;53.85;98624.66;5093257;28;20121;-47
2024/03/15 01:13:19;;;;;;;6.03;3.80;;;;;;;14.19;53.52;98628.34;5091572;28;20595;-47
2024/03/15 01:15:46;;;;;;;8.20;3.50;;;;;;;14.20;54.17;98624.66;5093154;28;20020;-47
2024/03/15 01:18:16;;;;;;;6.65;3.13;;;;;;;14.29;53.83;98628.59;5091508;28;20028;-47
2024/03/15 01:20:42;;;;;;;5.45;3.17;;;;;;;14.30;53.59;98634.69;5092667;28;20433;-47
2024/03/15 01:23:08;;;;;;;10.90;2.88;;;;;;;14.39;53.95;98622.78;5091182;28;20419;-47
2024/03/15 01:25:37;;;;;;;5.75;2.10;;;;;;;14.51;53.85;98625.44;5091378;28;20406;-47
2024/03/15 01:28:08;;;;;;;10.48;9.10;;;;;;;14.55;52.67;98631.88;5092717;28;20051;-47
2024/03/15 01:30:34;;;;;;;8.73;7.65;;;;;;;14.59;53.27;98635.72;5091216;28;20119;-47
2024/03/15 01:33:00;;;;;;;6.13;2.70;;;;;;;14.69;52.64;98630.66;5091869;28;20057;-47
2024/03/15 01:35:32;;;;;;;4.78;2.20;;;;;;;14.67;51.98;98630.09;5091141;28;20036;-47
2024/03/15 01:38:04;;;;;;;23.88;17.40;;;;;;;14.66;52.51;98627.66;5092583;28;20489;-47
2024/03/15 01:40:33;;;;;;;5.93;4.95;;;;;;;14.59;52.49;98630.44;5092558;28;20039;-47
2024/03/15 01:43:00;;;;;;;4.80;2.83;;;;;;;14.61;52.47;98624.91;5091368;28;20100;-47
2024/03/15 01:45:25;;;;;;;4.20;2.92;;;;;;;14.57;52.01;98630.66;5092392;28;20510;-47
2024/03/15 01:47:51;;;;;;;9.65;3.42;;;;;;;14.49;52.13;98627.50;5091084;28;20012;-47
2024/03/15 01:50:17;;;;;;;6.40;2.33;;;;;;;14.36;52.26;98628.50;5092230;28;20508;-47
2024/03/15 01:52:42;;;;;;;7.30;5.05;;;;;;;14.35;52.58;98629.53;5090943;28;20040;-47
2024/03/15 01:55:09;;;;;;;5.82;2.30;;;;;;;14.37;52.96;98625.63;5092258;28;20027;-47
2024/03/15 01:57:39;;;;;;;8.93;2.70;;;;;;;14.39;52.46;98626.22;5091160;28;20040;-47
2024/03/15 02:00:09;;;;;;;7.10;3.05;;;;;;;14.25;52.51;98630.09;5092410;28;20385;-47
2024/03/15 02:02:36;;;;;;;11.95;5.65;;;;;;;14.25;52.78;98624.81;5092038;28;20081;-47
2024/03/15 02:05:02;;;;;;;8.27;2.35;;;;;;;14.35;52.62;98634.81;5092072;28;20444;-47
2024/03/15 02:07:28;;;;;;;10.10;6.90;;;;;;;14.38;52.52;98634.34;5092065;28;20039;-47
2024/03/15 02:09:57;;;;;;;5.45;3.50;;;;;;;14.38;52.42;98618.50;5091987;28;20063;-47
2024/03/15 02:12:26;;;;;;;4.70;1.77;;;;;;;14.45;52.24;98636.91;5090622;28;20024;-47
2024/03/15 02:14:52;;;;;;;4.75;1.35;;;;;;;14.47;52.08;98626.94;5090635;28;20089;-47
2024/03/15 02:17:18;;;;;;;6.25;2.75;;;;;;;14.44;52.00;98628.16;5090618;28;20024;-47
2024/03/15 02:19:44;;;;;;;4.63;1.45;;;;;;;14.48;51.60;98633.81;5090624;28;20032;-47
2024/03/15 02:22:11;;;;;;;5.88;3.17;;;;;;;14.48;51.78;98636.44;5091646;28;20056;-47
2024/03/15 02:24:40;;;;;;;6.07;3.85;;;;;;;14.49;52.21;98636.22;5090668;28;20024;-47
2024/03/15 02:27:08;;;;;;;20.10;18.15;;;;;;;14.51;51.79;98636.00;5091807;28;20032;-47
2024/03/15 02:29:34;;;;;;;7.07;4.15;;;;;;;14.47;51.61;98632.22;5074413;28;20435;-47
2024/03/15 02:32:00;;;;;;;4.20;2.20;;;;;;;14.47;51.67;98629.56;5091791;28;20079;-47
2024/03/15 02:34:26;;;;;;;4.85;2.33;;;;;;;14.46;51.28;98625.31;5090788;28;20063;-47
2024/03/15 02:36:52;;;;;;;5.80;2.15;;;;;;;14.45;51.35;98624.50;5091800;28;20028;-47
2024/03/15 02:39:19;;;;;;;9.52;2.95;;;;;;;14.53;51.62;98628.66;5073629;28;20036;-47
2024/03/15 02:41:45;;;;;;;6.75;3.15;;;;;;;14.59;51.49;98622.50;5090606;28;20051;-47
2024/03/15 02:44:15;;;;;;;5.18;1.90;;;;;;;14.52;50.89;98619.91;5092177;28;20032;-47
2024/03/15 02:46:41;;;;;;;5.63;3.20;;;;;;;14.45;51.00;98626.34;5096031;28;20106;-47
2024/03/15 02:49:07;;;;;;;3.42;1.27;;;;;;;14.52;51.52;98627.03;5095795;28;20098;-47
2024/03/15 02:51:33;;;;;;;5.20;1.90;;;;;;;14.45;51.26;98624.50;5094685;28;20032;-47
2024/03/15 02:53:59;;;;;;;5.22;1.58;;;;;;;14.47;51.98;98630.38;5094429;28;20103;-47
2024/03/15 02:56:25;;;;;;;4.78;2.33;;;;;;;14.35;51.17;98640.09;5095650;28;20035;-47
2024/03/15 02:58:50;;;;;;;6.57;1.60;;;;;;;14.23;51.28;98637.44;5094565;28;20078;-47
2024/03/15 03:01:16;;;;;;;25.23;3.47;;;;;;;14.16;51.34;98645.41;5095462;28;20397;-47
2024/03/15 03:03:42;;;;;;;11.15;4.20;;;;;;;14.13;51.72;98637.16;5095471;28;20050;-47
2024/03/15 03:06:10;;;;;;;7.70;4.32;;;;;;;14.11;51.51;98645.31;5095443;28;20024;-47
2024/03/15 03:08:36;;;;;;;7.63;2.33;;;;;;;14.08;52.08;98643.09;5095273;28;20031;-47
2024/03/15 03:11:09;;;;;;;6.90;1.75;;;;;;;14.08;51.53;98648.38;5094015;28;20028;-47
2024/03/15 03:13:38;;;;;;;4.07;1.77;;;;;;;13.94;51.59;98652.22;5093953;28;20456;-47
2024/03/15 03:16:07;;;;;;;7.15;2.67;;;;;;;13.85;51.98;98664.13;5095232;28;20375;-47
2024/03/15 03:18:33;;;;;;;6.07;2.05;;;;;;;13.85;52.02;98664.13;5095156;28;20024;-47
2024/03/15 03:20:59;;;;;;;5.88;2.33;;;;;;;13.72;52.01;98671.19;5093761;28;20402;-47
2024/03/15 03:23:26;;;;;;;8.13;4.15;;;;;;;13.65;52.74;98664.34;5094786;28;20044;-47
2024/03/15 03:25:51;;;;;;;6.57;2.40;;;;;;;13.66;52.88;98668.59;5093663;28;20024;-47
2024/03/15 03:28:17;;;;;;;4.25;1.77;;;;;;;13.72;52.51;98665.91;5076821;28;20027;-48
2024/03/15 03:30:44;;;;;;;6.28;1.50;;;;;;;13.65;52.31;98669.63;5094950;28;20069;-47
2024/03/15 03:33:09;;;;;;;6.18;2.97;;;;;;;13.65;52.74;98672.28;5060233;28;20024;-47
2024/03/15 03:35:35;;;;;;;11.57;3.42;;;;;;;13.75;52.77;98673.34;5094834;28;20497;-47
2024/03/15 03:38:02;;;;;;;6.63;2.28;;;;;;;13.80;52.50;98677.97;5094823;28;20056;-47
2024/03/15 03:40:28;;;;;;;7.07;1.95;;;;;;;13.89;52.60;98678.47;5094582;28;20040;-47
2024/03/15 03:42:54;;;;;;;8.60;7.78;;;;;;;14.00;52.01;98677.72;5093442;28;20027;-47
2024/03/15 03:45:22;;;;;;;5.38;2.42;;;;;;;14.11;52.81;98678.81;5094693;28;20129;-47
2024/03/15 03:47:52;;;;;;;4.93;2.97;;;;;;;14.19;51.70;98687.22;5094544;28;20080;-47
2024/03/15 03:50:17;;;;;;;7.35;5.13;;;;;;;14.32;51.56;98685.41;5093175;28;20028;-47
2024/03/15 03:52:44;;;;;;;5.38;1.83;;;;;;;14.31;50.92;98684.63;5094487;28;20084;-47
2024/03/15 03:55:10;;;;;;;53.20;48.50;;;;;;;14.15;50.58;98696.63;5093975;28;20130;-47
2024/03/15 03:57:38;;;;;;;10.93;7.70;;;;;;;13.97;51.57;98691.38;5094471;28;20028;-47
2024/03/15 04:00:05;;;;;;;10.73;5.53;;;;;;;13.94;51.36;98697.91;5094304;28;20024;-47
2024/03/15 04:02:32;;;;;;;18.40;16.35;;;;;;;13.92;51.93;98693.84;5094506;28;20036;-47
2024/03/15 04:04:58;;;;;;;13.95;9.25;;;;;;;13.97;51.16;98688.72;5094391;28;20020;-47
2024/03/15 04:07:32;;;;;;;18.95;16.38;;;;;;;13.88;51.73;98688.22;5094547;28;20024;-47
2024/03/15 04:09:58;;;;;;;6.10;3.53;;;;;;;13.88;52.08;98690.03;5094229;28;20024;-47
2024/03/15 04:12:26;;;;;;;27.30;19.77;;;;;;;13.99;51.87;98702.50;5092775;28;20153;-47
2024/03/15 04:14:54;;;;;;;15.38;11.93;;;;;;;14.08;51.25;98700.34;5094036;28;20024;-47
2024/03/15 04:17:19;;;;;;;11.18;4.70;;;;;;;14.07;51.43;98702.19;5093998;28;20024;-47
2024/03/15 04:19:47;;;;;;;5.90;2.13;;;;;;;14.08;51.38;98693.25;5094031;28;20027;-47
2024/03/15 04:22:13;;;;;;;8.45;4.55;;;;;;;14.15;51.88;98695.81;5093608;28;20421;-47
2024/03/15 04:24:39;;;;;;;6.45;2.58;;;;;;;14.27;51.21;98698.50;5092589;28;20032;-47
2024/03/15 04:27:08;;;;;;;4.88;1.98;;;;;;;14.35;51.27;98700.81;5093889;28;20063;-47
2024/03/15 04:29:37;;;;;;;3.70;2.03;;;;;;;14.43;51.22;98704.97;5094074;28;20402;-47
2024/03/15 04:32:04;;;;;;;4.28;2.00;;;;;;;14.42;50.88;98701.53;5093726;28;20099;-47
2024/03/15 04:34:30;;;;;;;5.35;2.03;;;;;;;14.28;51.11;98706.19;5092443;28;20075;-47
2024/03/15 04:36:59;;;;;;;6.85;2.85;;;;;;;14.13;51.68;98700.50;5093589;28;20028;-47
2024/03/15 04:39:25;;;;;;;5.57;2.95;;;;;;;14.08;51.90;98706.44;5092273;28;20060;-47
2024/03/15 04:41:50;;;;;;;6.80;2.80;;;;;;;14.03;52.25;98695.75;5093393;28;20063;-47
2024/03/15 04:44:16;;;;;;;7.85;2.40;;;;;;;13.98;52.29;98699.06;5093460;28;20115;-47
2024/03/15 04:46:43;;;;;;;8.00;2.70;;;;;;;13.97;52.43;98704.56;5093463;28;20397;-47
2024/03/15 04:49:08;;;;;;;4.78;2.05;;;;;;;14.02;52.45;98712.59;5092083;28;20085;-47
2024/03/15 04:51:34;;;;;;;11.80;9.82;;;;;;;14.07;52.30;98711.97;5093700;28;20024;-47
2024/03/15 04:54:00;;;;;;;8.52;2.80;;;;;;;14.07;51.93;98715.41;5093331;28;20039;-47
2024/03/15 04:56:26;;;;;;;9.00;2.45;;;;;;;14.08;52.03;98708.28;5093222;28;20107;-47
2024/03/15 04:58:52;;;;;;;6.32;2.35;;;;;;;14.13;51.99;98703.94;5091906;28;20119;-47
2024/03/15 05:01:17;;;;;;;9.43;4.38;;;;;;;14.12;52.69;98710.25;5091737;28;20025;-47
2024/03/15 05:03:43;;;;;;;4.80;2.50;;;;;;;14.20;52.70;98714.41;5093174;28;20459;-47
2024/03/15 05:06:09;;;;;;;8.43;2.70;;;;;;;14.19;52.89;98710.97;5093092;28;20023;-48
2024/03/15 05:08:35;;;;;;;9.82;2.90;;;;;;;14.23;53.04;98716.63;5092076;28;20031;-47
2024/03/15 05:11:01;;;;;;;11.52;2.78;;;;;;;14.28;52.63;98713.28;5092999;28;20020;-47
2024/03/15 05:13:28;;;;;;;4.90;2.78;;;;;;;14.28;52.68;98710.66;5092871;28;20024;-47
2024/03/15 05:15:53;;;;;;;6.05;2.45;;;;;;;14.17;52.30;98714.88;5092940;28;20040;-47
2024/03/15 05:18:20;;;;;;;3.72;1.80;;;;;;;14.06;52.63;98718.25;5092833;28;20046;-47
2024/03/15 05:20:48;;;;;;;12.68;3.17;;;;;;;14.09;52.91;98713.34;5092678;28;20482;-47
2024/03/15 05:23:14;;;;;;;6.40;3.30;;;;;;;14.23;52.30;98724.53;5092662;28;20070;-47
2024/03/15 05:25:40;;;;;;;11.60;3.67;;;;;;;14.28;52.20;98723.84;5092916;28;20028;-47
2024/03/15 05:28:09;;;;;;;6.57;1.80;;;;;;;14.22;52.03;98722.13;5091364;28;20058;-47
2024/03/15 05:30:36;;;;;;;16.55;3.17;;;;;;;14.12;52.61;98723.44;5092657;28;20031;-47
2024/03/15 05:33:02;;;;;;;9.13;2.90;;;;;;;14.17;52.91;98720.94;5092905;28;20120;-47
2024/03/15 05:35:29;;;;;;;7.80;4.15;;;;;;;14.18;53.10;98719.09;5092778;28;20060;-47
2024/03/15 05:37:54;;;;;;;7.55;2.90;;;;;;;14.06;53.08;98724.31;5092738;28;20046;-47
2024/03/15 05:40:21;;;;;;;7.03;2.50;;;;;;;13.99;53.23;98724.41;5092470;28;20493;-47
2024/03/15 05:42:47;;;;;;;4.75;3.05;;;;;;;13.90;53.40;98724.94;5091035;28;20440;-47
2024/03/15 05:45:14;;;;;;;13.45;6.95;;;;;;;13.88;53.49;98726.97;5092334;28;20509;-47
2024/03/15 05:47:39;;;;;;;10.50;3.65;;;;;;;13.79;53.58;98732.56;5092472;28;20051;-47
2024/03/15 05:50:06;;;;;;;7.97;2.53;;;;;;;13.83;53.82;98722.38;5092296;28;20474;-47
2024/03/15 05:52:32;;;;;;;4.30;2.05;;;;;;;13.89;54.12;98729.41;5090995;28;20478;-47
2024/03/15 05:55:02;;;;;;;6.95;2.67;;;;;;;14.03;53.95;98726.63;5092533;28;20020;-47
2024/03/15 05:57:29;;;;;;;4.35;2.05;;;;;;;13.90;53.89;98725.72;5092444;28;20464;-47
2024/03/15 05:59:55;;;;;;;6.63;2.30;;;;;;;13.83;54.23;98729.50;5092167;28;20107;-47
2024/03/15 06:02:21;;;;;;;6.68;2.25;;;;;;;13.71;54.65;98740.75;5092002;28;20036;-47
2024/03/15 06:04:47;;;;;;;15.05;13.52;;;;;;;13.58;55.23;98735.59;5092427;28;20058;-47
2024/03/15 06:07:12;;;;;;;8.00;3.00;;;;;;;13.70;55.70;98740.97;5090739;28;20405;-47
2024/03/15 06:09:38;;;;;;;5.05;2.35;;;;;;;13.64;55.24;98740.00;5091029;28;20517;-47
2024/03/15 06:12:05;;;;;;;6.78;2.90;;;;;;;13.63;55.61;98738.41;5090907;28;20020;-47
2024/03/15 06:14:31;;;;;;;8.80;2.90;;;;;;;13.69;55.92;98734.91;5091957;28;20036;-47
2024/03/15 06:16:58;;;;;;;12.30;3.30;;;;;;;13.59;56.02;98732.75;5090614;28;20466;-47
2024/03/15 06:19:23;;;;;;;10.23;3.40;;;;;;;13.61;56.52;98744.94;5090296;28;20024;-47
2024/03/15 06:21:53;;;;;;;8.50;4.00;;;;;;;13.76;56.57;98743.56;5090504;28;20175;-47
2024/03/15 06:24:21;;;;;;;10.95;5.45;;;;;;;13.87;56.13;98738.56;5091836;28;20028;-47
2024/03/15 06:26:47;;;;;;;8.35;5.13;;;;;;;14.04;56.15;98744.84;5091819;28;20059;-47
2024/03/15 06:29:16;;;;;;;36.78;33.10;;;;;;;14.39;55.54;98746.88;5090510;28;20068;-47
2024/03/15 06:31:45;;;;;;;10.52;5.53;;;;;;;15.09;53.93;98753.41;5107350;28;20444;-47
2024/03/15 06:34:10;;;;;;;13.27;4.10;;;;;;;15.89;50.76;98757.34;5090421;28;20115;-47
2024/03/15 06:36:43;;;;;;;7.72;3.65;;;;;;;16.48;48.94;98763.28;5091958;28;20116;-47
2024/03/15 06:39:25;;;;;;;6.75;3.35;;;;;;;16.92;47.58;98768.84;5091699;28;20107;-47
2024/03/15 06:41:53;;;;;;;9.18;3.20;;;;;;;16.96;47.32;98771.81;5091593;28;20051;-47
2024/03/15 06:44:20;;;;;;;7.82;2.83;;;;;;;17.47;47.37;98771.81;5091601;28;20038;-47
2024/03/15 06:47:28;;;;;;;7.90;2.78;;;;;;;18.66;45.18;98769.59;5090319;28;20040;-47
2024/03/15 06:49:54;;;;;;;11.48;6.78;;;;;;;19.87;41.75;98770.00;5089508;28;20089;-47
2024/03/15 06:52:36;;;;;;;25.83;3.80;;;;;;;20.23;40.16;98767.50;5091832;28;20027;-47
2024/03/15 06:55:03;;;;;;;41.55;7.18;;;;;;;19.65;40.94;98764.78;5090522;28;20058;-47
2024/03/15 06:57:29;;;;;;;32.45;6.95;;;;;;;18.69;42.69;98771.72;5091566;28;20036;-47
2024/03/15 06:59:55;;;;;;;9.77;2.60;;;;;;;17.98;44.07;98777.06;5090253;28;20032;-47
2024/03/15 07:02:21;;;;;;;29.77;4.90;;;;;;;17.29;45.08;98775.53;5091338;28;20032;-47
2024/03/15 07:04:50;;;;;;;41.00;7.07;;;;;;;16.67;46.32;98779.78;5091876;28;20475;-47
2024/03/15 07:07:17;;;;;;;28.25;4.65;;;;;;;16.33;47.51;98779.66;5091432;28;20020;-47
2024/03/15 07:09:43;;;;;;;25.02;6.00;;;;;;;15.99;48.32;98776.06;5090452;28;20035;-47
2024/03/15 07:12:08;;;;;;;22.75;3.95;;;;;;;15.81;49.12;98781.50;5090389;28;20111;-47
2024/03/15 07:14:34;;;;;;;13.80;6.97;;;;;;;16.09;49.06;98784.22;5091446;28;20028;-47
2024/03/15 07:17:00;;;;;;;24.27;6.00;;;;;;;16.09;48.57;98788.72;5089998;28;20036;-47
2024/03/15 07:19:28;;;;;;;10.93;3.00;;;;;;;16.22;48.86;98795.59;5090045;28;20089;-47
2024/03/15 07:21:55;;;;;;;18.70;4.03;;;;;;;17.81;47.21;98788.50;5091003;28;20052;-48
2024/03/15 07:24:21;;;;;;;15.55;4.07;;;;;;;18.80;44.08;98781.44;5091263;28;20032;-47
2024/03/15 07:26:46;;;;;;;17.88;3.75;;;;;;;18.53;44.04;98784.06;5091294;28;20051;-47
2024/03/15 07:29:12;;;;;;;25.73;4.20;;;;;;;18.18;44.50;98787.94;5089981;28;20059;-47
2024/03/15 07:31:38;;;;;;;33.17;4.80;;;;;;;17.84;44.91;98792.53;5093579;28;20137;-47
2024/03/15 07:34:04;;;;;;;28.55;4.22;;;;;;;17.42;45.03;98803.56;5094881;28;20398;-47
2024/03/15 07:36:30;;;;;;;17.73;4.43;;;;;;;17.12;46.07;98802.03;5094900;28;20035;-47
2024/03/15 07:38:56;;;;;;;18.70;3.85;;;;;;;17.19;46.77;98800.03;5094940;28;20034;-47
2024/03/15 07:41:27;;;;;;;13.65;3.90;;;;;;;17.44;46.40;98801.47;5094633;28;20111;-47
2024/03/15 07:43:53;;;;;;;19.95;4.57;;;;;;;17.53;46.05;98802.69;5095053;28;20397;-47
2024/03/15 07:46:19;;;;;;;11.55;2.90;;;;;;;17.57;45.74;98801.97;5094738;28;20524;-47
2024/03/15 07:48:45;;;;;;;21.13;4.43;;;;;;;17.49;45.52;98807.69;5077002;28;20031;-47
2024/03/15 07:51:11;;;;;;;15.90;3.83;;;;;;;17.23;46.02;98811.78;5094846;28;20024;-47
2024/03/15 07:53:36;;;;;;;17.23;3.88;;;;;;;17.09;46.79;98813.13;5094613;28;20596;-47
2024/03/15 07:56:09;;;;;;;18.80;4.78;;;;;;;17.31;47.39;98816.69;5093198;28;20031;-47
2024/03/15 07:58:37;;;;;;;14.98;4.10;;;;;;;17.52;47.38;98811.69;5094747;28;20482;-47
2024/03/15 08:01:08;;;;;;;20.48;5.10;;;;;;;17.69;47.09;98812.50;5094242;28;20067;-47
2024/03/15 08:03:37;;;;;;;18.73;3.80;;;;;;;17.75;46.62;98803.56;5094326;28;20053;-47
2024/03/15 08:06:05;;;;;;;26.40;4.28;;;;;;;17.84;46.47;98803.16;5094231;28;20020;-47
2024/03/15 08:08:32;;;;;;;15.35;3.88;;;;;;;18.11;46.24;98808.53;5094186;28;20068;-47
2024/03/15 08:10:57;;;;;;;23.63;4.15;;;;;;;18.79;45.30;98801.09;5094210;28;20110;-47
2024/03/15 08:13:25;;;;;;;41.35;5.22;;;;;;;20.58;42.70;98801.44;5092896;28;20154;-47
2024/03/15 08:16:33;;;;;;;17.30;6.93;;;;;;;23.13;38.29;98779.75;5094357;28;20454;-47
2024/03/15 08:18:55;;;;;;;19.50;8.00;;;;;;;23.20;34.96;98774.06;5092498;28;20149;-47
2024/03/15 08:21:24;;;;;;;16.48;7.38;;;;;;;22.15;36.23;98779.47;5093703;28;20490;-48
2024/03/15 08:23:49;;;;;;;13.10;5.65;;;;;;;21.11;36.81;98798.63;5094280;28;20028;-47
2024/03/15 08:26:15;;;;;;;8.35;2.58;;;;;;;20.22;38.41;98795.19;5094200;28;20019;-47
2024/03/15 08:28:41;;;;;;;11.55;3.88;;;;;;;20.05;40.42;98804.19;5093921;28;20065;-47
2024/03/15 08:31:07;;;;;;;7.72;2.70;;;;;;;19.82;40.88;98807.25;5093854;28;20024;-47
2024/03/15 08:33:34;;;;;;;5.85;3.70;;;;;;;19.63;41.22;98806.84;5093789;28;20024;-47
2024/03/15 08:36:00;;;;;;;10.43;3.60;;;;;;;19.55;41.05;98806.25;5092429;28;20031;-47
2024/03/15 08:38:26;;;;;;;10.88;4.88;;;;;;;19.47;42.11;98805.94;5093610;28;20097;-47
2024/03/15 08:40:52;;;;;;;7.95;4.55;;;;;;;19.20;41.19;98793.50;5092229;28;20062;-47
2024/03/15 08:43:17;;;;;;;7.93;3.78;;;;;;;18.82;42.32;98813.91;5092150;28;20034;-47
2024/03/15 08:45:43;;;;;;;31.55;14.68;;;;;;;18.81;42.37;98806.19;5093530;28;20027;-47
2024/03/15 08:48:12;;;;;;;18.02;5.18;;;;;;;18.55;42.64;98814.69;5093450;28;20043;-47
2024/03/15 08:50:38;;;;;;;22.00;10.07;;;;;;;18.49;43.09;98809.53;5092177;28;20028;-47
2024/03/15 08:53:07;;;;;;;92.97;43.92;;;;;;;18.53;43.30;98806.16;5092069;28;20024;-47
2024/03/15 08:55:33;;;;;;;24.70;10.93;;;;;;;18.39;43.30;98820.88;5092084;28;20581;-48
2024/03/15 08:57:59;;;;;;;46.55;22.98;;;;;;;18.44;43.69;98817.47;5093196;28;20035;-47
2024/03/15 09:00:25;;;;;;;96.75;40.50;;;;;;;19.01;43.39;98822.31;5092039;28;20028;-47
2024/03/15 09:02:51;;;;;;;56.60;12.48;;;;;;;20.68;41.33;98827.38;5091847;28;20059;-47
2024/03/15 09:05:16;;;;;;;48.22;21.15;;;;;;;22.70;37.85;98814.28;5093097;28;20133;-47
2024/03/15 09:07:42;;;;;;;96.90;39.95;;;;;;;24.30;35.50;98823.31;5093106;28;20035;-47
2024/03/15 09:10:13;;;;;;;60.63;25.77;;;;;;;25.33;33.27;98815.72;5091967;28;20370;-48
2024/03/15 09:12:46;;;;;;;18.67;5.43;;;;;;;25.20;32.15;98815.38;5093114;28;20066;-47
2024/03/15 09:15:12;;;;;;;28.10;10.65;;;;;;;24.57;33.26;98827.31;5093199;28;20020;-48
2024/03/15 09:17:39;;;;;;;12.68;4.80;;;;;;;24.18;33.43;98833.66;5092947;28;20509;-48
2024/03/15 09:20:33;;;;;;;9.38;4.80;;;;;;;24.10;33.34;98836.97;5092854;28;20024;-47
2024/03/15 09:22:51;;;;;;;17.35;5.80;;;;;;;24.13;32.94;98845.25;5090798;28;20417;-48
2024/03/15 09:25:22;;;;;;;24.75;4.88;;;;;;;23.91;32.99;98845.75;5091463;28;20020;-47
2024/03/15 09:27:52;;;;;;;13.18;3.53;;;;;;;23.56;33.47;98843.38;5091488;28;20194;-47
2024/03/15 09:30:26;;;;;;;25.08;5.05;;;;;;;23.02;33.93;98861.19;5092691;28;20073;-47
2024/03/15 09:32:53;;;;;;;13.95;3.53;;;;;;;22.64;34.84;98855.53;5092711;28;20474;-47
2024/03/15 09:35:19;;;;;;;9.38;3.42;;;;;;;22.33;35.54;98861.81;5092588;28;20036;-48
2024/03/15 09:37:51;;;;;;;9.68;3.17;;;;;;;22.16;35.60;98863.16;5092827;28;20055;-47
2024/03/15 09:40:23;;;;;;;13.55;2.60;;;;;;;21.82;36.42;98869.91;5092448;28;20027;-48
2024/03/15 09:42:52;;;;;;;12.25;3.10;;;;;;;21.43;36.84;98867.81;5092396;28;20020;-47
2024/03/15 09:45:18;;;;;;;11.18;2.95;;;;;;;21.14;37.71;98868.28;5092726;28;20069;-47
2024/03/15 09:47:50;;;;;;;15.05;3.05;;;;;;;20.90;37.83;98867.97;5092332;28;20028;-48
2024/03/15 09:50:17;;;;;;;13.35;3.97;;;;;;;20.74;38.06;98867.16;5092353;28;20027;-47
2024/03/15 09:52:46;;;;;;;65.45;54.60;;;;;;;20.52;38.75;98875.31;5092368;28;20077;-47
2024/03/15 09:55:16;;;;;;;22.83;7.57;;;;;;;20.35;38.87;98875.47;5092160;28;20028;-47
2024/03/15 09:57:43;;;;;;;17.40;3.67;;;;;;;20.04;39.56;98877.19;5090907;28;20028;-47
2024/03/15 10:00:17;;;;;;;18.58;3.47;;;;;;;19.86;40.35;98875.75;5090843;28;20111;-47
2024/03/15 10:02:47;;;;;;;15.55;4.85;;;;;;;19.79;40.38;98863.72;5091133;28;20402;-47
2024/03/15 10:05:17;;;;;;;30.30;6.38;;;;;;;19.73;40.81;98874.31;5091030;28;20482;-47
2024/03/15 10:07:43;;;;;;;18.95;6.70;;;;;;;19.77;42.76;98863.16;5091031;28;20032;-46
2024/03/15 10:10:13;;;;;;;17.02;5.88;;;;;;;19.60;44.81;98855.28;5090815;28;20551;-47
2024/03/15 10:12:46;;;;;;;13.68;7.93;;;;;;;19.10;48.57;98859.94;5092012;28;20028;-47
2024/03/15 10:15:14;;;;;;;11.30;6.45;;;;;;;18.67;50.34;98864.22;5090970;28;20031;-47
2024/03/15 10:17:43;;;;;;;19.23;6.10;;;;;;;18.39;51.60;98868.69;5090691;28;20050;-47
2024/03/15 10:20:25;;;;;;;22.40;8.98;;;;;;;17.94;53.69;98875.78;5091861;28;20031;-47
2024/03/15 10:22:53;;;;;;;18.48;8.40;;;;;;;17.64;57.19;98868.13;5090331;28;20113;-47
2024/03/15 10:25:24;;;;;;;31.15;23.83;;;;;;;17.24;59.79;98874.38;5090583;28;20028;-47
2024/03/15 10:27:54;;;;;;;12.40;6.22;;;;;;;16.27;63.24;98862.72;5091963;28;20125;-47
2024/03/15 10:30:30;;;;;;;10.95;8.82;;;;;;;15.15;68.56;98871.44;5091825;28;20032;-47
2024/03/15 10:33:03;;;;;;;11.77;5.68;;;;;;;14.49;74.60;98865.19;5090489;28;20028;-46
2024/03/15 10:35:29;;;;;;;28.35;19.98;;;;;;;14.39;78.37;98869.13;5091755;28;20031;-46
2024/03/15 10:37:55;;;;;;;10.43;5.43;;;;;;;14.83;78.66;98861.13;5091789;28;20490;-47
2024/03/15 10:40:26;;;;;;;7.57;4.45;;;;;;;15.15;76.58;98866.16;5091748;28;20035;-47
2024/03/15 10:43:02;;;;;;;11.70;3.75;;;;;;;15.30;77.81;98871.84;5091545;28;20020;-47
2024/03/15 10:45:28;;;;;;;7.47;4.60;;;;;;;15.48;80.43;98875.44;5090408;28;20053;-47
2024/03/15 10:47:57;;;;;;;14.70;8.77;;;;;;;15.57;83.26;98874.91;5091914;28;20051;-47
2024/03/15 10:50:25;;;;;;;13.07;5.00;;;;;;;15.93;84.53;98877.59;5090346;28;20039;-47
2024/03/15 10:52:53;;;;;;;7.35;4.45;;;;;;;16.03;84.38;98869.88;5091615;28;20445;-47
2024/03/15 10:55:24;;;;;;;10.05;6.03;;;;;;;16.12;85.91;98863.19;5090312;28;20024;-46
2024/03/15 10:57:51;;;;;;;14.50;6.38;;;;;;;16.11;86.50;98858.91;5091536;28;20508;-47
2024/03/15 11:00:26;;;;;;;9.27;4.82;;;;;;;16.24;86.53;98859.72;5091571;28;20051;-47
2024/03/15 11:02:56;;;;;;;15.95;6.07;;;;;;;16.57;86.76;98870.47;5091491;28;20402;-47
2024/03/15 11:05:26;;;;;;;15.63;6.07;;;;;;;17.43;84.73;98856.41;5091933;28;20576;-47
2024/03/15 11:08:02;;;;;;;7.70;3.58;;;;;;;18.00;75.36;98857.28;5095440;28;20024;-47
2024/03/15 11:10:29;;;;;;;8.65;3.55;;;;;;;18.31;74.32;98856.66;5095410;28;20024;-47
2024/03/15 11:13:00;;;;;;;10.02;5.47;;;;;;;18.86;75.57;98849.59;5095361;28;20016;-47
2024/03/15 11:15:32;;;;;;;10.02;3.25;;;;;;;19.33;70.09;98851.59;5095267;28;20028;-47
2024/03/15 11:18:11;;;;;;;6.75;2.75;;;;;;;19.86;68.57;98848.28;5095196;28;20035;-47
2024/03/15 11:20:46;;;;;;;7.35;2.95;;;;;;;20.86;67.41;98856.22;5095151;28;20393;-48
2024/03/15 11:23:20;;;;;;;6.72;3.67;;;;;;;21.09;66.06;98854.94;5094927;28;20044;-47
2024/03/15 11:26:00;;;;;;;12.45;5.80;;;;;;;20.99;64.11;98860.25;5095081;28;20023;-47
2024/03/15 11:28:31;;;;;;;6.38;3.72;;;;;;;20.62;61.83;98850.53;5093733;28;20053;-47
2024/03/15 11:30:57;;;;;;;8.52;5.13;;;;;;;20.07;56.70;98839.38;5077066;28;20032;-47